createdAt,value
2017-11-30T00:02:18.512Z,4.30
2017-11-30T00:04:47.541Z,4.57
2017-11-30T00:07:15.787Z,4.77
2017-11-30T00:09:44.794Z,3.67
2017-11-30T00:12:13.847Z,4.20
2017-11-30T00:14:42.153Z,4.70
2017-11-30T00:17:11.173Z,4.43
2017-11-30T00:19:39.432Z,4.97
2017-11-30T00:22:08.439Z,5.73
2017-11-30T00:24:36.682Z,4.20
2017-11-30T00:27:05.022Z,4.00
2017-11-30T00:29:33.291Z,5.63
2017-11-30T00:32:01.565Z,4.53
2017-11-30T00:34:29.802Z,4.40
2017-11-30T00:36:58.838Z,4.97
2017-11-30T00:39:27.076Z,4.13
2017-11-30T00:41:55.355Z,5.33
2017-11-30T00:44:34.265Z,4.73
2017-11-30T00:47:02.516Z,5.43
2017-11-30T00:49:30.732Z,5.17
2017-11-30T00:51:59.061Z,4.13
2017-11-30T00:54:27.284Z,5.13
2017-11-30T00:56:55.544Z,4.37
2017-11-30T00:59:24.605Z,4.90
2017-11-30T01:01:52.917Z,5.50
2017-11-30T01:04:21.185Z,5.13
2017-11-30T01:06:49.456Z,3.83
2017-11-30T01:09:17.758Z,5.57
2017-11-30T01:11:46.835Z,5.17
2017-11-30T01:14:15.136Z,5.53
2017-11-30T01:16:44.434Z,4.23
2017-11-30T01:19:13.445Z,5.53
2017-11-30T01:21:41.739Z,4.43
2017-11-30T01:24:10.019Z,5.73
2017-11-30T01:26:38.279Z,5.10
2017-11-30T01:29:06.521Z,5.10
2017-11-30T01:31:35.568Z,4.77
2017-11-30T01:34:03.799Z,5.23
2017-11-30T01:36:32.819Z,4.43
2017-11-30T01:39:01.065Z,6.17
2017-11-30T01:41:29.281Z,4.87
2017-11-30T01:43:57.579Z,5.20
2017-11-30T01:46:25.864Z,6.00
2017-11-30T01:48:54.128Z,5.20
2017-11-30T01:51:23.136Z,4.27
2017-11-30T01:53:51.448Z,5.67
2017-11-30T01:56:20.477Z,4.90
2017-11-30T01:58:48.783Z,4.90
2017-11-30T02:01:17.094Z,5.20
2017-11-30T02:03:46.151Z,4.77
2017-11-30T02:06:14.418Z,5.57
2017-11-30T02:08:42.691Z,4.60
2017-11-30T02:11:10.984Z,4.77
2017-11-30T02:13:39.305Z,4.93
2017-11-30T02:16:08.297Z,5.90
2017-11-30T02:18:36.573Z,4.97
2017-11-30T02:21:05.579Z,6.27
2017-11-30T02:23:33.879Z,4.67
2017-11-30T02:26:02.162Z,6.10
2017-11-30T02:28:30.375Z,5.07
2017-11-30T02:30:58.658Z,5.03
2017-11-30T02:33:26.899Z,4.33
2017-11-30T02:35:55.179Z,5.83
2017-11-30T02:38:23.464Z,5.40
2017-11-30T02:40:51.743Z,5.60
2017-11-30T02:43:20.040Z,6.87
2017-11-30T02:45:48.353Z,4.83
2017-11-30T02:48:17.339Z,5.20
2017-11-30T02:50:45.654Z,5.80
2017-11-30T02:53:13.890Z,6.20
2017-11-30T02:55:42.168Z,4.43
2017-11-30T02:58:10.463Z,5.57
2017-11-30T03:00:38.676Z,5.27
2017-11-30T03:03:06.953Z,6.10
2017-11-30T03:05:35.237Z,5.27
2017-11-30T03:08:03.521Z,4.53
2017-11-30T03:10:31.809Z,5.43
2017-11-30T03:13:00.871Z,5.70
2017-11-30T03:15:29.124Z,4.97
2017-11-30T03:17:57.418Z,6.10
2017-11-30T03:20:25.652Z,4.67
2017-11-30T03:22:53.967Z,5.37
2017-11-30T03:25:22.255Z,5.60
2017-11-30T03:27:50.523Z,4.30
2017-11-30T03:30:18.825Z,5.07
2017-11-30T03:32:47.103Z,5.67
2017-11-30T03:35:15.332Z,5.63
2017-11-30T03:37:43.609Z,5.47
2017-11-30T03:40:11.880Z,6.07
2017-11-30T03:42:40.102Z,5.47
2017-11-30T03:45:08.392Z,5.00
2017-11-30T03:47:37.375Z,4.77
2017-11-30T03:50:06.451Z,5.10
2017-11-30T03:52:34.688Z,5.97
2017-11-30T03:55:02.923Z,5.00
2017-11-30T03:57:31.966Z,5.40
2017-11-30T04:00:00.185Z,5.87
2017-11-30T04:02:28.428Z,5.40
2017-11-30T04:04:56.734Z,6.50
2017-11-30T04:07:25.011Z,5.37
2017-11-30T04:09:53.290Z,5.67
2017-11-30T04:12:22.285Z,5.47
2017-11-30T04:14:50.522Z,5.50
2017-11-30T04:17:19.269Z,5.80
2017-11-30T04:19:47.570Z,6.47
2017-11-30T04:22:15.836Z,5.97
2017-11-30T04:24:44.077Z,5.17
2017-11-30T04:27:12.353Z,4.63
2017-11-30T04:29:40.598Z,5.77
2017-11-30T04:32:08.845Z,5.10
2017-11-30T04:34:37.120Z,5.77
2017-11-30T04:37:05.414Z,6.80
2017-11-30T04:39:33.648Z,6.30
2017-11-30T04:42:01.910Z,5.33
2017-11-30T04:44:30.913Z,5.97
2017-11-30T04:46:59.963Z,5.73
2017-11-30T04:49:28.227Z,6.43
2017-11-30T04:51:56.483Z,4.80
2017-11-30T04:54:24.728Z,5.53
2017-11-30T04:56:53.047Z,5.73
2017-11-30T04:59:21.323Z,5.97
2017-11-30T05:01:49.700Z,5.83
2017-11-30T05:04:17.964Z,5.30
2017-11-30T05:06:47.002Z,5.90
2017-11-30T05:09:15.268Z,5.77
2017-11-30T05:11:43.563Z,6.07
2017-11-30T05:14:11.812Z,4.90
2017-11-30T05:16:40.103Z,4.70
2017-11-30T05:19:08.366Z,5.57
2017-11-30T05:21:36.656Z,6.43
2017-11-30T05:24:04.872Z,6.47
2017-11-30T05:26:33.874Z,5.17
2017-11-30T05:29:02.886Z,7.40
2017-11-30T05:31:31.928Z,6.93
2017-11-30T05:34:00.189Z,6.00
2017-11-30T05:36:28.474Z,6.83
2017-11-30T05:38:56.699Z,6.70
2017-11-30T05:41:25.019Z,7.43
2017-11-30T05:43:53.308Z,5.27
2017-11-30T05:46:21.536Z,5.60
2017-11-30T05:48:49.793Z,6.67
2017-11-30T05:51:18.804Z,6.33
2017-11-30T05:53:47.143Z,6.97
2017-11-30T05:56:15.366Z,5.87
2017-11-30T05:58:43.617Z,6.33
2017-11-30T06:01:12.677Z,6.00
2017-11-30T06:03:40.916Z,7.40
2017-11-30T06:06:09.222Z,7.20
2017-11-30T06:08:37.448Z,7.03
2017-11-30T06:11:06.500Z,7.27
2017-11-30T06:13:34.741Z,6.67
2017-11-30T06:16:03.107Z,6.67
2017-11-30T06:18:31.421Z,5.87
2017-11-30T06:20:59.643Z,7.50
2017-11-30T06:23:27.952Z,6.73
2017-11-30T06:25:56.196Z,6.73
2017-11-30T06:28:24.426Z,7.27
2017-11-30T06:30:52.716Z,7.07
2017-11-30T06:33:20.972Z,6.50
2017-11-30T06:35:49.271Z,6.80
2017-11-30T06:38:17.506Z,6.07
2017-11-30T06:40:45.745Z,5.47
2017-11-30T06:43:14.818Z,6.43
2017-11-30T06:45:43.055Z,6.90
2017-11-30T06:48:11.333Z,6.67
2017-11-30T06:50:39.553Z,7.53
2017-11-30T06:53:07.852Z,6.90
2017-11-30T06:55:36.105Z,6.53
2017-11-30T06:58:04.358Z,7.43
2017-11-30T07:00:32.636Z,5.80
2017-11-30T07:03:00.915Z,6.13
2017-11-30T07:05:29.210Z,6.67
2017-11-30T07:07:57.486Z,8.73
2017-11-30T07:10:25.831Z,7.53
2017-11-30T07:12:54.113Z,6.63
2017-11-30T07:15:22.362Z,6.50
2017-11-30T07:17:50.597Z,7.10
2017-11-30T07:20:19.607Z,6.03
2017-11-30T07:22:48.637Z,6.27
2017-11-30T07:25:16.864Z,6.13
2017-11-30T07:27:45.104Z,6.80
2017-11-30T07:30:13.386Z,6.90
2017-11-30T07:32:41.645Z,7.13
2017-11-30T07:35:09.935Z,7.50
2017-11-30T07:37:38.201Z,5.50
2017-11-30T07:40:06.478Z,6.90
2017-11-30T07:42:34.723Z,6.50
2017-11-30T07:45:02.987Z,5.87
2017-11-30T07:47:32.020Z,6.30
2017-11-30T07:50:00.278Z,6.90
2017-11-30T07:52:28.552Z,6.23
2017-11-30T07:54:56.836Z,5.77
2017-11-30T07:57:25.092Z,6.47
2017-11-30T07:59:54.121Z,6.23
2017-11-30T08:02:22.344Z,5.90
2017-11-30T08:04:51.366Z,5.30
2017-11-30T08:07:19.608Z,6.70
2017-11-30T08:09:47.877Z,6.27
2017-11-30T08:12:16.112Z,6.67
2017-11-30T08:14:44.398Z,6.80
2017-11-30T08:17:12.688Z,6.33
2017-11-30T08:19:41.755Z,6.57
2017-11-30T08:22:09.988Z,6.57
2017-11-30T08:24:39.064Z,7.83
2017-11-30T08:27:07.346Z,6.53
2017-11-30T08:29:35.648Z,6.20
2017-11-30T08:32:04.671Z,6.37
2017-11-30T08:34:32.914Z,6.07
2017-11-30T08:37:01.962Z,7.00
2017-11-30T08:39:30.180Z,6.83
2017-11-30T08:41:59.188Z,6.93
2017-11-30T08:44:27.491Z,7.23
2017-11-30T08:46:55.761Z,6.33
2017-11-30T08:49:24.030Z,6.77
2017-11-30T08:51:52.319Z,5.37
2017-11-30T08:54:20.604Z,6.10
2017-11-30T08:56:48.879Z,6.30
2017-11-30T08:59:17.124Z,6.57
2017-11-30T09:01:46.186Z,6.47
2017-11-30T09:04:14.429Z,6.10
2017-11-30T09:06:42.748Z,5.93
2017-11-30T09:09:10.993Z,6.23
2017-11-30T09:11:39.303Z,5.73
2017-11-30T09:14:07.564Z,6.17
2017-11-30T09:16:35.825Z,5.73
2017-11-30T09:19:04.066Z,5.27
2017-11-30T09:21:32.336Z,5.87
2017-11-30T09:24:00.565Z,5.67
2017-11-30T09:26:28.830Z,5.23
2017-11-30T09:28:57.096Z,6.57
2017-11-30T09:31:25.346Z,5.27
2017-11-30T09:33:53.634Z,5.27
2017-11-30T09:36:21.976Z,6.13
2017-11-30T09:38:50.278Z,6.10
2017-11-30T09:41:18.579Z,6.27
2017-11-30T09:43:46.816Z,5.63
2017-11-30T09:46:15.841Z,6.00
2017-11-30T09:48:44.114Z,7.33
2017-11-30T09:51:12.428Z,5.67
2017-11-30T09:53:40.716Z,5.97
2017-11-30T09:56:08.989Z,6.40
2017-11-30T09:58:37.288Z,7.00
2017-11-30T10:01:06.283Z,5.67
2017-11-30T10:03:35.308Z,6.63
2017-11-30T10:06:03.529Z,4.73
2017-11-30T10:08:31.815Z,5.23
2017-11-30T10:11:00.870Z,5.03
2017-11-30T10:13:29.085Z,6.13
2017-11-30T10:15:57.351Z,6.60
2017-11-30T10:18:25.580Z,6.53
2017-11-30T10:20:53.833Z,5.87
2017-11-30T10:23:22.129Z,6.30
2017-11-30T10:25:50.364Z,6.20
2017-11-30T10:28:19.401Z,5.53
2017-11-30T10:30:47.779Z,5.67
2017-11-30T10:33:16.027Z,7.50
2017-11-30T10:35:44.237Z,6.90
2017-11-30T10:38:12.513Z,5.83
2017-11-30T10:40:40.791Z,5.97
2017-11-30T10:43:09.054Z,5.47
2017-11-30T10:45:38.210Z,6.10
2017-11-30T10:48:06.497Z,5.97
2017-11-30T10:50:34.772Z,5.93
2017-11-30T10:53:03.025Z,4.93
2017-11-30T10:55:31.281Z,5.50
2017-11-30T10:57:59.577Z,5.50
2017-11-30T11:00:27.908Z,5.10
2017-11-30T11:02:56.952Z,5.80
2017-11-30T11:05:25.252Z,6.17
2017-11-30T11:07:53.559Z,4.27
2017-11-30T11:10:21.870Z,3.83
2017-11-30T11:12:50.150Z,3.77
2017-11-30T11:15:18.428Z,4.23
2017-11-30T11:17:46.698Z,4.50
2017-11-30T11:20:15.013Z,3.90
2017-11-30T11:22:43.235Z,4.27
2017-11-30T11:25:11.522Z,3.83
2017-11-30T11:27:39.804Z,3.93
2017-11-30T11:30:08.029Z,4.40
2017-11-30T11:32:37.071Z,4.77
2017-11-30T11:35:06.095Z,4.83
2017-11-30T11:37:34.355Z,3.73
2017-11-30T11:40:02.631Z,3.57
2017-11-30T11:42:30.939Z,3.40
2017-11-30T11:44:59.173Z,4.20
2017-11-30T11:47:27.432Z,3.83
2017-11-30T11:49:55.700Z,3.80
2017-11-30T11:52:23.984Z,3.03
2017-11-30T11:54:52.283Z,3.37
2017-11-30T11:57:20.533Z,3.63
2017-11-30T11:59:48.792Z,3.67
2017-11-30T12:02:17.078Z,3.07
2017-11-30T12:04:45.389Z,3.10
2017-11-30T12:07:13.676Z,4.07
2017-11-30T12:09:41.933Z,2.83
2017-11-30T12:12:10.165Z,2.73
2017-11-30T12:14:38.437Z,3.03
2017-11-30T12:17:07.451Z,3.00
2017-11-30T12:19:35.697Z,3.23
2017-11-30T12:22:04.741Z,3.73
2017-11-30T12:24:32.997Z,3.87
2017-11-30T12:27:01.272Z,3.13
2017-11-30T12:29:29.590Z,3.60
2017-11-30T12:31:57.798Z,3.87
2017-11-30T12:34:26.863Z,3.47
2017-11-30T12:36:55.152Z,4.20
2017-11-30T12:39:23.411Z,4.30
2017-11-30T12:41:51.652Z,3.73
2017-11-30T12:44:19.887Z,4.23
2017-11-30T12:46:48.215Z,3.67
2017-11-30T12:49:16.472Z,4.13
2017-11-30T12:51:44.737Z,4.00
2017-11-30T12:54:13.784Z,4.60
2017-11-30T12:56:42.091Z,3.90
2017-11-30T12:59:10.391Z,4.47
2017-11-30T13:01:38.651Z,3.60
2017-11-30T13:04:07.671Z,4.73
2017-11-30T13:06:35.989Z,4.47
2017-11-30T13:09:04.266Z,4.17
2017-11-30T13:11:32.510Z,4.57
2017-11-30T13:14:00.810Z,4.00
2017-11-30T13:16:29.091Z,4.13
2017-11-30T13:18:57.362Z,4.10
2017-11-30T13:21:25.595Z,4.07
2017-11-30T13:23:54.621Z,3.60
2017-11-30T13:26:22.864Z,3.83
2017-11-30T13:28:51.905Z,3.87
2017-11-30T13:31:20.146Z,4.57
2017-11-30T13:33:48.382Z,3.60
2017-11-30T13:36:16.633Z,4.87
2017-11-30T13:38:44.886Z,4.43
2017-11-30T13:41:13.123Z,4.47
2017-11-30T13:43:42.185Z,3.83
2017-11-30T13:46:10.444Z,4.40
2017-11-30T13:48:38.738Z,3.93
2017-11-30T13:51:07.766Z,3.73
2017-11-30T13:53:36.043Z,4.47
2017-11-30T13:56:05.085Z,3.97
2017-11-30T13:58:33.424Z,3.37
2017-11-30T14:01:02.455Z,4.67
2017-11-30T14:03:30.704Z,4.30
2017-11-30T14:05:59.031Z,4.33
2017-11-30T14:08:27.244Z,3.67
2017-11-30T14:10:56.299Z,3.80
2017-11-30T14:13:24.575Z,4.40
2017-11-30T14:15:52.847Z,3.50
2017-11-30T14:18:21.121Z,3.87
2017-11-30T14:20:49.404Z,4.97
2017-11-30T14:23:17.673Z,4.23
2017-11-30T14:25:46.004Z,4.47
2017-11-30T14:28:15.030Z,3.80
2017-11-30T14:30:43.315Z,3.80
2017-11-30T14:33:11.543Z,4.93
2017-11-30T14:35:40.536Z,3.80
2017-11-30T14:38:09.570Z,4.50
2017-11-30T14:40:37.868Z,4.50
2017-11-30T14:43:06.089Z,4.70
2017-11-30T14:45:35.079Z,5.13
2017-11-30T14:48:04.086Z,4.20
2017-11-30T14:50:32.344Z,5.17
2017-11-30T14:53:01.355Z,4.53
2017-11-30T14:55:29.644Z,5.07
2017-11-30T14:57:57.925Z,4.13
2017-11-30T15:00:26.172Z,5.37
2017-11-30T15:02:55.171Z,4.70
2017-11-30T15:05:24.259Z,4.50
2017-11-30T15:07:53.330Z,4.77
2017-11-30T15:10:21.624Z,4.50
2017-11-30T15:12:50.627Z,4.23
2017-11-30T15:15:18.883Z,4.63
2017-11-30T15:17:47.200Z,4.93
2017-11-30T15:20:16.205Z,5.00
2017-11-30T15:22:45.313Z,5.07
2017-11-30T15:25:13.776Z,4.20
2017-11-30T15:27:42.053Z,4.73
2017-11-30T15:30:10.336Z,6.10
2017-11-30T15:32:38.585Z,5.47
2017-11-30T15:35:07.626Z,4.37
2017-11-30T15:37:35.926Z,4.97
2017-11-30T15:40:04.218Z,4.83
2017-11-30T15:42:32.494Z,5.17
2017-11-30T15:45:01.580Z,5.03
2017-11-30T15:47:29.858Z,4.57
2017-11-30T15:49:58.133Z,5.10
2017-11-30T15:52:26.411Z,5.10
2017-11-30T15:54:54.680Z,4.33
2017-11-30T15:57:22.998Z,6.00
2017-11-30T15:59:51.301Z,4.60
2017-11-30T16:02:19.524Z,5.67
2017-11-30T16:04:48.591Z,5.10
2017-11-30T16:07:16.884Z,5.00
2017-11-30T16:09:45.141Z,5.37
2017-11-30T16:12:13.404Z,5.47
2017-11-30T16:14:41.724Z,5.27
2017-11-30T16:17:10.792Z,4.43
2017-11-30T16:19:39.022Z,3.87
2017-11-30T16:22:07.397Z,4.47
2017-11-30T16:24:35.691Z,6.10
2017-11-30T16:27:04.006Z,5.13
2017-11-30T16:29:32.243Z,5.20
2017-11-30T16:32:00.552Z,5.83
2017-11-30T16:34:28.837Z,4.63
2017-11-30T16:36:57.082Z,5.67
2017-11-30T16:39:25.387Z,5.53
2017-11-30T16:41:54.426Z,5.13
2017-11-30T16:44:23.515Z,5.90
2017-11-30T16:46:52.561Z,6.27
2017-11-30T16:49:20.814Z,6.43
2017-11-30T16:51:49.137Z,5.90
2017-11-30T16:54:17.367Z,6.77
2017-11-30T16:56:45.876Z,5.50
2017-11-30T16:59:14.119Z,5.97
2017-11-30T17:01:42.433Z,5.40
2017-11-30T17:04:10.762Z,4.70
2017-11-30T17:06:39.752Z,6.47
2017-11-30T17:09:08.858Z,5.67
2017-11-30T17:11:37.870Z,5.30
2017-11-30T17:14:06.164Z,5.73
2017-11-30T17:16:34.405Z,6.33
2017-11-30T17:19:02.690Z,5.73
2017-11-30T17:21:30.978Z,5.27
2017-11-30T17:23:59.213Z,4.97
2017-11-30T17:26:28.318Z,6.37
2017-11-30T17:28:57.371Z,5.03
2017-11-30T17:31:25.679Z,6.73
2017-11-30T17:33:53.903Z,6.03
2017-11-30T17:36:22.966Z,5.83
2017-11-30T17:38:51.250Z,6.57
2017-11-30T17:41:19.499Z,6.40
2017-11-30T17:43:48.564Z,6.13
2017-11-30T17:46:16.818Z,5.87
2017-11-30T17:48:45.069Z,6.03
2017-11-30T17:51:13.351Z,7.10
2017-11-30T17:53:41.675Z,5.90
2017-11-30T17:56:09.937Z,6.73
2017-11-30T17:58:38.197Z,6.10
2017-11-30T18:01:06.443Z,6.23
2017-11-30T18:03:34.771Z,6.50
2017-11-30T18:06:03.834Z,6.23
2017-11-30T18:08:32.109Z,5.80
2017-11-30T18:11:00.415Z,6.30
2017-11-30T18:13:28.686Z,4.93
2017-11-30T18:15:57.718Z,6.67
2017-11-30T18:18:25.990Z,6.43
2017-11-30T18:20:55.048Z,7.23
2017-11-30T18:23:23.321Z,6.70
2017-11-30T18:25:51.582Z,6.80
2017-11-30T18:28:19.812Z,5.03
2017-11-30T18:30:48.842Z,6.87
2017-11-30T18:33:17.108Z,6.47
2017-11-30T18:35:45.356Z,4.70
2017-11-30T18:38:13.669Z,6.37
2017-11-30T18:40:42.757Z,5.67
2017-11-30T18:43:11.793Z,6.43
2017-11-30T18:45:40.071Z,6.00
2017-11-30T18:48:08.335Z,5.77
2017-11-30T18:50:36.568Z,6.10
2017-11-30T18:53:05.638Z,5.63
2017-11-30T18:55:33.909Z,7.23
2017-11-30T18:58:02.205Z,5.47
2017-11-30T19:00:30.434Z,7.20
2017-11-30T19:02:58.694Z,6.57
2017-11-30T19:05:27.027Z,6.90
2017-11-30T19:07:55.287Z,7.73
2017-11-30T19:10:24.326Z,5.43
2017-11-30T19:12:52.597Z,5.23
2017-11-30T19:15:21.664Z,6.40
2017-11-30T19:17:49.946Z,6.00
2017-11-30T19:20:18.249Z,5.67
2017-11-30T19:22:47.302Z,6.23
2017-11-30T19:25:15.594Z,6.53
2017-11-30T19:27:43.929Z,7.23
2017-11-30T19:30:12.209Z,5.47
2017-11-30T19:32:41.350Z,7.27
2017-11-30T19:35:10.519Z,6.53
2017-11-30T19:37:38.892Z,7.70
2017-11-30T19:40:07.181Z,6.77
2017-11-30T19:42:35.464Z,6.80
2017-11-30T19:45:03.727Z,6.63
2017-11-30T19:47:32.035Z,5.23
2017-11-30T19:50:00.328Z,6.20
2017-11-30T19:52:29.407Z,6.43
2017-11-30T19:54:57.641Z,6.47
2017-11-30T19:57:25.884Z,5.47
2017-11-30T19:59:54.935Z,6.10
2017-11-30T20:02:23.876Z,5.23
2017-11-30T20:04:52.200Z,6.80
2017-11-30T20:07:20.580Z,5.77
2017-11-30T20:09:49.643Z,8.60
2017-11-30T20:12:17.870Z,6.87
2017-11-30T20:14:46.984Z,7.07
2017-11-30T20:17:15.968Z,8.00
2017-11-30T20:19:45.044Z,5.53
2017-11-30T20:22:13.340Z,8.43
2017-11-30T20:24:42.416Z,6.93
2017-11-30T20:27:10.670Z,6.13
2017-11-30T20:29:39.318Z,6.33
2017-11-30T20:32:07.611Z,5.43
2017-11-30T20:34:35.908Z,6.43
2017-11-30T20:37:04.180Z,6.83
2017-11-30T20:39:32.452Z,6.30
2017-11-30T20:42:01.400Z,6.93
2017-11-30T20:44:29.659Z,5.30
2017-11-30T20:46:57.972Z,5.67
2017-11-30T20:49:27.025Z,5.53
2017-11-30T20:51:55.273Z,5.00
2017-11-30T20:54:23.540Z,5.77
2017-11-30T20:56:52.664Z,5.80
2017-11-30T20:59:20.916Z,6.00
2017-11-30T21:01:49.185Z,6.43
2017-11-30T21:04:17.547Z,6.23
2017-11-30T21:06:46.539Z,5.97
2017-11-30T21:09:14.803Z,6.27
2017-11-30T21:11:43.098Z,5.77
2017-11-30T21:14:12.630Z,4.43
2017-11-30T21:16:40.938Z,5.50
2017-11-30T21:19:09.183Z,6.07
2017-11-30T21:21:37.478Z,4.40
2017-11-30T21:24:05.767Z,5.63
2017-11-30T21:26:34.037Z,6.40
2017-11-30T21:29:02.648Z,6.37
2017-11-30T21:31:30.921Z,4.90
2017-11-30T21:33:59.181Z,5.27
2017-11-30T21:36:27.460Z,5.47
2017-11-30T21:38:55.769Z,5.03
2017-11-30T21:41:24.931Z,5.13
2017-11-30T21:43:53.206Z,5.60
2017-11-30T21:46:21.496Z,4.93
2017-11-30T21:48:50.569Z,5.27
2017-11-30T21:51:18.813Z,4.30
2017-11-30T21:53:47.059Z,4.17
2017-11-30T21:56:15.505Z,4.33
2017-11-30T21:58:43.895Z,5.17
2017-11-30T22:01:12.157Z,4.57
2017-11-30T22:03:40.450Z,5.17
2017-11-30T22:06:08.716Z,5.47
2017-11-30T22:08:36.943Z,5.13
2017-11-30T22:11:05.257Z,5.07
2017-11-30T22:13:33.525Z,4.97
2017-11-30T22:16:01.811Z,5.33
2017-11-30T22:18:30.044Z,5.03
2017-11-30T22:20:58.338Z,5.07
2017-11-30T22:23:26.564Z,5.37
2017-11-30T22:25:55.648Z,5.27
2017-11-30T22:28:23.910Z,4.80
2017-11-30T22:30:52.156Z,4.50
2017-11-30T22:33:20.387Z,4.07
2017-11-30T22:35:49.452Z,6.10
2017-11-30T22:38:17.729Z,4.73
2017-11-30T22:40:45.996Z,5.20
2017-11-30T22:43:14.266Z,4.17
2017-11-30T22:45:42.545Z,3.83
2017-11-30T22:48:10.766Z,4.53
2017-11-30T22:50:39.784Z,4.77
2017-11-30T22:53:08.075Z,5.57
2017-11-30T22:55:36.371Z,5.17
2017-11-30T22:58:04.613Z,5.67
2017-11-30T23:00:40.743Z,4.73
2017-11-30T23:03:08.983Z,4.33
2017-11-30T23:05:38.034Z,4.80
2017-11-30T23:08:07.060Z,4.10
2017-11-30T23:10:35.367Z,4.43
2017-11-30T23:13:03.608Z,4.97
2017-11-30T23:15:31.933Z,4.13
2017-11-30T23:18:00.197Z,3.97
2017-11-30T23:20:28.508Z,3.77
2017-11-30T23:22:56.721Z,3.43
2017-11-30T23:25:24.992Z,4.20
2017-11-30T23:27:53.255Z,6.60
2017-11-30T23:30:21.512Z,5.07
2017-11-30T23:32:50.588Z,4.77
2017-11-30T23:35:18.866Z,4.57
2017-11-30T23:37:47.144Z,5.03
2017-11-30T23:40:15.460Z,4.17
2017-11-30T23:42:43.737Z,4.60
2017-11-30T23:45:12.015Z,4.83
2017-11-30T23:47:40.292Z,4.07
2017-11-30T23:50:08.581Z,4.27
2017-11-30T23:52:36.897Z,5.17
2017-11-30T23:55:05.163Z,5.10
2017-11-30T23:57:33.460Z,4.20
